createdAt,value
2018-02-19T00:01:45.650Z,67.65
2018-02-19T00:04:13.227Z,63.55
2018-02-19T00:06:40.742Z,60.10
2018-02-19T00:09:08.331Z,59.10
2018-02-19T00:11:35.996Z,66.05
2018-02-19T00:14:03.546Z,62.80
2018-02-19T00:16:31.051Z,56.13
2018-02-19T00:18:58.628Z,65.07
2018-02-19T00:21:26.149Z,57.40
2018-02-19T00:23:54.460Z,60.35
2018-02-19T00:26:22.038Z,54.95
2018-02-19T00:28:49.675Z,56.97
2018-02-19T00:31:17.236Z,63.10
2018-02-19T00:33:44.780Z,58.20
2018-02-19T00:36:13.072Z,59.85
2018-02-19T00:38:40.635Z,53.97
2018-02-19T00:41:08.155Z,66.47
2018-02-19T00:43:35.749Z,69.03
2018-02-19T00:46:03.254Z,57.67
2018-02-19T00:48:30.784Z,62.47
2018-02-19T00:50:58.299Z,59.45
2018-02-19T00:53:26.615Z,68.20
2018-02-19T00:55:54.172Z,72.32
2018-02-19T00:58:21.737Z,63.70
2018-02-19T01:00:49.384Z,67.55
2018-02-19T01:03:16.888Z,67.32
2018-02-19T01:05:44.416Z,66.87
2018-02-19T01:08:11.978Z,66.75
2018-02-19T01:10:39.526Z,68.65
2018-02-19T01:13:07.028Z,69.65
2018-02-19T01:15:34.571Z,68.45
2018-02-19T01:18:02.107Z,76.57
2018-02-19T01:20:29.667Z,67.07
2018-02-19T01:22:57.188Z,73.82
2018-02-19T01:25:25.500Z,78.82
2018-02-19T01:27:53.060Z,71.40
2018-02-19T01:30:22.204Z,78.62
2018-02-19T01:32:49.715Z,73.22
2018-02-19T01:35:17.278Z,68.93
2018-02-19T01:37:44.912Z,69.15
2018-02-19T01:40:13.206Z,73.60
2018-02-19T01:42:40.755Z,73.45
2018-02-19T01:45:08.300Z,62.62
2018-02-19T01:47:36.579Z,67.00
2018-02-19T01:50:15.748Z,70.28
2018-02-19T01:52:43.265Z,69.72
2018-02-19T01:55:11.547Z,70.03
2018-02-19T01:57:39.837Z,66.20
2018-02-19T02:00:07.365Z,76.03
2018-02-19T02:02:34.971Z,66.70
2018-02-19T02:05:02.524Z,67.80
2018-02-19T02:07:30.028Z,75.40
2018-02-19T02:09:57.547Z,68.65
2018-02-19T02:12:25.073Z,69.72
2018-02-19T02:14:53.477Z,71.30
2018-02-19T02:17:20.996Z,72.68
2018-02-19T02:19:48.548Z,73.37
2018-02-19T02:22:16.088Z,77.37
2018-02-19T02:24:43.711Z,82.30
2018-02-19T02:27:11.243Z,75.45
2018-02-19T02:29:39.552Z,71.95
2018-02-19T02:32:07.102Z,64.78
2018-02-19T02:34:34.640Z,81.80
2018-02-19T02:37:03.040Z,72.00
2018-02-19T02:39:30.624Z,70.00
2018-02-19T02:41:58.135Z,65.22
2018-02-19T02:44:26.495Z,76.32
2018-02-19T02:46:54.164Z,72.43
2018-02-19T02:49:21.740Z,68.90
2018-02-19T02:51:50.079Z,63.60
2018-02-19T02:54:17.607Z,71.07
2018-02-19T02:56:45.152Z,69.43
2018-02-19T02:59:12.806Z,61.17
2018-02-19T03:01:40.335Z,66.60
2018-02-19T03:04:07.899Z,74.40
2018-02-19T03:06:36.199Z,74.85
2018-02-19T03:09:04.499Z,62.25
2018-02-19T03:11:32.034Z,61.67
2018-02-19T03:14:00.386Z,66.25
2018-02-19T03:16:27.925Z,63.28
2018-02-19T03:18:55.476Z,64.95
2018-02-19T03:21:23.004Z,63.35
2018-02-19T03:23:50.547Z,71.18
2018-02-19T03:26:18.840Z,65.15
2018-02-19T03:28:46.376Z,68.25
2018-02-19T03:31:14.676Z,67.78
2018-02-19T03:33:42.264Z,66.00
2018-02-19T03:36:09.774Z,67.15
2018-02-19T03:38:38.069Z,63.05
2018-02-19T03:41:05.631Z,65.28
2018-02-19T03:43:33.193Z,75.68
2018-02-19T03:46:00.747Z,61.08
2018-02-19T03:48:28.241Z,64.35
2018-02-19T03:50:55.802Z,67.22
2018-02-19T03:53:23.322Z,64.20
2018-02-19T03:55:50.908Z,68.70
2018-02-19T03:58:18.431Z,63.53
2018-02-19T04:00:46.719Z,60.80
2018-02-19T04:03:14.280Z,71.53
2018-02-19T04:05:41.828Z,64.30
2018-02-19T04:08:10.096Z,62.15
2018-02-19T04:10:38.411Z,68.87
2018-02-19T04:13:05.941Z,61.58
2018-02-19T04:15:33.494Z,63.80
2018-02-19T04:18:01.886Z,62.67
2018-02-19T04:20:29.428Z,65.45
2018-02-19T04:22:57.720Z,68.95
2018-02-19T04:25:25.281Z,67.20
2018-02-19T04:27:52.839Z,60.15
2018-02-19T04:30:20.370Z,61.95
2018-02-19T04:32:48.698Z,58.05
2018-02-19T04:35:16.244Z,60.63
2018-02-19T04:37:44.628Z,64.40
2018-02-19T04:40:12.281Z,66.43
2018-02-19T04:42:39.799Z,64.30
2018-02-19T04:45:12.959Z,57.25
2018-02-19T04:47:40.504Z,61.00
2018-02-19T04:50:08.059Z,62.95
2018-02-19T04:52:35.666Z,57.22
2018-02-19T04:55:03.200Z,53.55
2018-02-19T04:57:30.719Z,54.70
2018-02-19T04:59:58.270Z,62.95
2018-02-19T05:02:26.567Z,57.15
2018-02-19T05:04:54.118Z,60.28
2018-02-19T05:07:21.635Z,60.45
2018-02-19T05:09:49.160Z,60.85
2018-02-19T05:12:16.659Z,60.03
2018-02-19T05:14:44.256Z,58.47
2018-02-19T05:17:11.925Z,52.15
2018-02-19T05:19:39.474Z,55.22
2018-02-19T05:22:06.981Z,61.30
2018-02-19T05:24:34.507Z,61.60
2018-02-19T05:27:02.070Z,58.55
2018-02-19T05:29:29.613Z,53.25
2018-02-19T05:31:57.147Z,60.05
2018-02-19T05:34:25.539Z,59.53
2018-02-19T05:36:53.115Z,56.13
2018-02-19T05:39:21.425Z,63.10
2018-02-19T05:41:49.038Z,56.55
2018-02-19T05:44:17.417Z,54.75
2018-02-19T05:46:44.984Z,55.80
2018-02-19T05:49:13.460Z,54.80
2018-02-19T05:51:40.973Z,54.70
2018-02-19T05:54:08.550Z,61.10
2018-02-19T05:56:37.400Z,56.28
2018-02-19T05:59:04.957Z,60.90
2018-02-19T06:01:32.456Z,54.85
2018-02-19T06:04:00.000Z,58.08
2018-02-19T06:06:27.523Z,61.72
2018-02-19T06:08:55.235Z,53.65
2018-02-19T06:11:22.755Z,65.05
2018-02-19T06:13:51.480Z,61.65
2018-02-19T06:16:19.085Z,55.53
2018-02-19T06:18:46.883Z,57.08
2018-02-19T06:21:14.407Z,54.08
2018-02-19T06:23:41.975Z,60.38
2018-02-19T06:26:09.545Z,54.50
2018-02-19T06:28:37.184Z,57.42
2018-02-19T06:31:04.700Z,58.95
2018-02-19T06:33:32.243Z,52.55
2018-02-19T06:35:59.772Z,52.70
2018-02-19T06:38:27.352Z,51.95
2018-02-19T06:40:54.884Z,61.33
2018-02-19T06:43:22.510Z,53.63
2018-02-19T06:45:50.013Z,62.83
2018-02-19T06:48:17.559Z,56.90
2018-02-19T06:50:45.105Z,59.33
2018-02-19T06:53:12.668Z,57.33
2018-02-19T06:55:40.195Z,58.13
2018-02-19T06:58:08.517Z,56.28
2018-02-19T07:00:36.081Z,54.30
2018-02-19T07:03:03.702Z,60.00
2018-02-19T07:05:31.980Z,52.30
2018-02-19T07:08:00.298Z,55.53
2018-02-19T07:10:27.828Z,56.47
2018-02-19T07:12:55.371Z,59.97
2018-02-19T07:15:23.718Z,56.55
2018-02-19T07:17:51.271Z,54.85
2018-02-19T07:20:18.780Z,55.12
2018-02-19T07:22:46.360Z,60.15
2018-02-19T07:25:13.913Z,57.83
2018-02-19T07:27:41.429Z,52.30
2018-02-19T07:30:08.958Z,50.95
2018-02-19T07:32:36.524Z,57.85
2018-02-19T07:35:04.072Z,56.13
2018-02-19T07:37:31.589Z,46.13
2018-02-19T07:39:59.891Z,56.33
2018-02-19T07:42:27.483Z,51.53
2018-02-19T07:44:55.012Z,59.20
2018-02-19T07:47:22.540Z,56.17
2018-02-19T07:49:50.837Z,51.15
2018-02-19T07:52:18.389Z,48.67
2018-02-19T07:54:45.916Z,58.85
2018-02-19T07:57:13.513Z,53.30
2018-02-19T07:59:41.094Z,52.40
2018-02-19T08:02:08.644Z,52.85
2018-02-19T08:04:36.172Z,53.17
2018-02-19T08:07:04.583Z,52.10
2018-02-19T08:09:32.153Z,52.42
2018-02-19T08:11:59.668Z,48.28
2018-02-19T08:14:27.999Z,49.47
2018-02-19T08:16:55.639Z,52.30
2018-02-19T08:19:23.167Z,63.97
2018-02-19T08:21:51.452Z,48.20
2018-02-19T08:24:19.755Z,48.30
2018-02-19T08:26:47.336Z,42.95
2018-02-19T08:29:14.873Z,51.55
2018-02-19T08:31:42.425Z,47.72
2018-02-19T08:34:09.959Z,49.95
2018-02-19T08:36:38.371Z,47.97
2018-02-19T08:39:05.932Z,53.17
2018-02-19T08:41:33.482Z,49.13
2018-02-19T08:44:01.137Z,48.83
2018-02-19T08:46:28.651Z,47.20
2018-02-19T08:48:56.220Z,44.42
2018-02-19T08:51:23.736Z,50.65
2018-02-19T08:53:51.320Z,52.70
2018-02-19T08:56:18.840Z,49.90
2018-02-19T08:58:46.375Z,51.90
2018-02-19T09:01:14.682Z,51.00
2018-02-19T09:03:42.239Z,52.13
2018-02-19T09:06:09.756Z,49.97
2018-02-19T09:08:37.286Z,46.88
2018-02-19T09:11:04.919Z,45.33
2018-02-19T09:13:32.467Z,51.92
2018-02-19T09:16:00.664Z,46.65
2018-02-19T09:18:28.201Z,50.75
2018-02-19T09:20:55.732Z,44.75
2018-02-19T09:23:24.032Z,51.92
2018-02-19T09:25:51.596Z,46.15
2018-02-19T09:28:19.169Z,48.63
2018-02-19T09:30:46.705Z,47.85
2018-02-19T09:33:15.097Z,46.85
2018-02-19T09:35:42.660Z,44.70
2018-02-19T09:38:10.287Z,47.53
2018-02-19T09:40:37.811Z,48.20
2018-02-19T09:43:05.333Z,45.88
2018-02-19T09:45:32.892Z,51.03
2018-02-19T09:48:00.396Z,56.03
2018-02-19T09:50:27.996Z,47.72
2018-02-19T09:52:55.579Z,50.03
2018-02-19T09:55:23.227Z,48.85
2018-02-19T09:57:50.818Z,56.37
2018-02-19T10:00:18.356Z,47.47
2018-02-19T10:02:45.895Z,47.20
2018-02-19T10:05:13.447Z,51.00
2018-02-19T10:07:41.757Z,53.92
2018-02-19T10:10:09.285Z,60.30
2018-02-19T10:12:38.391Z,53.67
2018-02-19T10:15:05.950Z,50.40
2018-02-19T10:17:33.528Z,47.17
2018-02-19T10:20:01.205Z,44.80
2018-02-19T10:22:28.759Z,55.05
2018-02-19T10:24:56.306Z,44.40
2018-02-19T10:27:23.820Z,46.37
2018-02-19T10:29:51.355Z,50.42
2018-02-19T10:32:18.985Z,46.03
2018-02-19T10:34:46.532Z,47.13
2018-02-19T10:37:14.113Z,48.83
2018-02-19T10:39:41.777Z,48.95
2018-02-19T10:42:09.280Z,45.85
2018-02-19T10:44:36.904Z,49.67
2018-02-19T10:47:04.431Z,51.75
2018-02-19T10:49:32.043Z,45.22
2018-02-19T10:51:59.568Z,45.10
2018-02-19T10:54:27.218Z,48.22
2018-02-19T10:56:54.799Z,43.03
2018-02-19T10:59:22.355Z,44.00
2018-02-19T11:01:49.877Z,46.08
2018-02-19T11:04:18.287Z,50.50
2018-02-19T11:06:46.194Z,49.05
2018-02-19T11:09:14.565Z,45.92
2018-02-19T11:11:42.093Z,45.10
2018-02-19T11:14:09.635Z,47.17
2018-02-19T11:16:37.186Z,47.05
2018-02-19T11:19:04.718Z,47.53
2018-02-19T11:21:32.310Z,47.72
2018-02-19T11:24:00.633Z,51.67
2018-02-19T11:26:32.459Z,42.88
2018-02-19T11:29:00.039Z,46.25
2018-02-19T11:31:27.573Z,49.58
2018-02-19T11:33:55.129Z,44.03
2018-02-19T11:36:22.660Z,39.58
2018-02-19T11:38:55.446Z,41.50
2018-02-19T11:41:18.637Z,39.30
2018-02-19T11:43:46.257Z,44.95
2018-02-19T11:46:13.857Z,42.60
2018-02-19T11:48:41.396Z,38.15
2018-02-19T11:51:09.697Z,40.33
2018-02-19T11:53:37.242Z,43.90
2018-02-19T11:56:04.845Z,47.15
2018-02-19T11:58:32.384Z,46.47
2018-02-19T12:01:00.038Z,48.33
2018-02-19T12:03:27.589Z,36.88
2018-02-19T12:05:55.135Z,35.53
2018-02-19T12:08:23.431Z,37.30
2018-02-19T12:10:50.984Z,36.45
2018-02-19T12:13:18.516Z,35.70
2018-02-19T12:15:47.086Z,45.40
2018-02-19T12:18:14.694Z,32.83
2018-02-19T12:20:43.008Z,40.50
2018-02-19T12:23:10.939Z,40.33
2018-02-19T12:25:38.510Z,41.42
2018-02-19T12:28:06.061Z,38.72
2018-02-19T12:30:33.719Z,41.55
2018-02-19T12:33:01.282Z,37.05
2018-02-19T12:35:28.840Z,41.95
2018-02-19T12:37:56.396Z,35.72
2018-02-19T12:40:23.962Z,35.60
2018-02-19T12:42:51.528Z,31.30
2018-02-19T12:45:19.492Z,45.08
2018-02-19T12:47:47.059Z,37.88
2018-02-19T12:50:14.619Z,39.28
2018-02-19T12:52:42.146Z,33.75
2018-02-19T12:55:09.691Z,40.97
2018-02-19T12:57:38.098Z,42.15
2018-02-19T13:00:05.658Z,37.55
2018-02-19T13:02:33.171Z,38.30
2018-02-19T13:05:01.353Z,34.80
2018-02-19T13:07:29.637Z,35.92
2018-02-19T13:09:57.944Z,38.70
2018-02-19T13:12:25.480Z,39.53
2018-02-19T13:14:56.052Z,40.25
2018-02-19T13:17:23.576Z,40.25
2018-02-19T13:19:51.239Z,40.33
2018-02-19T13:22:18.763Z,38.95
2018-02-19T13:24:46.308Z,34.65
2018-02-19T13:27:14.758Z,35.85
2018-02-19T13:29:42.317Z,37.42
2018-02-19T13:32:09.928Z,34.45
2018-02-19T13:34:38.315Z,39.70
2018-02-19T13:37:06.633Z,44.85
2018-02-19T13:39:34.275Z,38.33
2018-02-19T13:42:01.808Z,40.08
2018-02-19T13:44:30.128Z,41.65
2018-02-19T13:46:57.703Z,36.58
2018-02-19T13:49:25.264Z,39.13
2018-02-19T13:51:52.917Z,39.45
2018-02-19T13:54:20.443Z,38.17
2018-02-19T13:56:48.016Z,36.53
2018-02-19T13:59:15.562Z,36.75
2018-02-19T14:01:43.844Z,36.40
2018-02-19T14:04:11.391Z,39.17
2018-02-19T14:06:39.689Z,37.78
2018-02-19T14:09:07.237Z,38.10
2018-02-19T14:11:34.770Z,38.85
2018-02-19T14:14:02.372Z,39.80
2018-02-19T14:16:29.917Z,44.47
2018-02-19T14:19:02.300Z,37.00
2018-02-19T14:21:29.841Z,33.88
2018-02-19T14:23:58.173Z,40.10
2018-02-19T14:26:25.756Z,41.10
2018-02-19T14:28:53.369Z,42.35
2018-02-19T14:31:21.704Z,39.08
2018-02-19T14:33:50.132Z,36.35
2018-02-19T14:36:17.685Z,38.28
2018-02-19T14:38:45.243Z,45.85
2018-02-19T14:41:12.773Z,39.47
2018-02-19T14:43:41.174Z,42.05
2018-02-19T14:46:08.688Z,40.85
2018-02-19T14:48:36.315Z,34.17
2018-02-19T14:51:03.859Z,35.65
2018-02-19T14:53:31.420Z,36.97
2018-02-19T14:55:58.980Z,42.08
2018-02-19T14:58:26.508Z,51.10
2018-02-19T15:00:55.820Z,55.25
2018-02-19T15:03:23.535Z,37.78
2018-02-19T15:05:51.079Z,36.85
2018-02-19T15:08:18.669Z,38.33
2018-02-19T15:10:46.221Z,37.05
2018-02-19T15:13:13.835Z,38.22
2018-02-19T15:15:41.371Z,42.15
2018-02-19T15:18:08.906Z,40.55
2018-02-19T15:20:36.572Z,36.38
2018-02-19T15:23:04.142Z,37.80
2018-02-19T15:25:32.552Z,41.17
2018-02-19T15:28:00.115Z,39.60
2018-02-19T15:30:27.651Z,39.55
2018-02-19T15:32:55.945Z,37.95
2018-02-19T15:35:23.478Z,42.70
2018-02-19T15:37:51.764Z,37.60
2018-02-19T15:40:20.386Z,38.08
2018-02-19T15:42:47.984Z,35.40
2018-02-19T15:45:16.262Z,33.35
2018-02-19T15:47:45.365Z,38.25
2018-02-19T15:50:12.937Z,35.65
2018-02-19T15:52:41.255Z,35.47
2018-02-19T15:55:08.883Z,35.70
2018-02-19T15:57:37.231Z,34.47
2018-02-19T16:00:04.797Z,37.10
2018-02-19T16:02:33.097Z,38.50
2018-02-19T16:05:01.484Z,41.85
2018-02-19T16:07:29.703Z,38.22
2018-02-19T16:09:57.262Z,36.05
2018-02-19T16:12:24.791Z,35.90
2018-02-19T16:14:52.343Z,34.08
2018-02-19T16:17:19.910Z,34.95
2018-02-19T16:19:47.458Z,34.95
2018-02-19T16:22:15.127Z,32.10
2018-02-19T16:24:42.660Z,33.50
2018-02-19T16:27:10.942Z,34.03
2018-02-19T16:29:38.489Z,30.88
2018-02-19T16:32:06.767Z,38.90
2018-02-19T16:34:35.110Z,33.50
2018-02-19T16:37:02.665Z,39.85
2018-02-19T16:39:30.255Z,30.40
2018-02-19T16:41:57.763Z,34.55
2018-02-19T16:44:25.299Z,36.05
2018-02-19T16:46:52.826Z,29.33
2018-02-19T16:49:20.453Z,31.90
2018-02-19T16:51:47.979Z,37.60
2018-02-19T16:54:15.548Z,35.05
2018-02-19T16:56:43.060Z,34.25
2018-02-19T16:59:10.690Z,35.70
2018-02-19T17:01:38.324Z,32.95
2018-02-19T17:04:05.891Z,35.25
2018-02-19T17:06:33.451Z,36.45
2018-02-19T17:09:01.036Z,35.85
2018-02-19T17:11:28.592Z,39.58
2018-02-19T17:13:56.160Z,39.03
2018-02-19T17:16:23.695Z,37.20
2018-02-19T17:18:51.945Z,44.08
2018-02-19T17:21:19.480Z,42.80
2018-02-19T17:23:48.538Z,33.50
2018-02-19T17:26:17.200Z,38.00
2018-02-19T17:28:44.719Z,36.85
2018-02-19T17:31:12.311Z,38.58
2018-02-19T17:33:40.298Z,38.72
2018-02-19T17:36:07.913Z,37.85
2018-02-19T17:38:36.180Z,36.70
2018-02-19T17:41:03.744Z,34.58
2018-02-19T17:43:31.261Z,40.85
2018-02-19T17:45:58.807Z,37.38
2018-02-19T17:48:26.337Z,34.53
2018-02-19T17:50:54.647Z,35.95
2018-02-19T17:53:22.168Z,33.20
2018-02-19T17:55:50.479Z,40.35
2018-02-19T17:58:18.040Z,36.55
2018-02-19T18:00:45.583Z,34.40
2018-02-19T18:03:13.099Z,35.88
2018-02-19T18:05:40.691Z,39.50
2018-02-19T18:08:11.616Z,35.10
2018-02-19T18:10:40.646Z,34.20
2018-02-19T18:13:08.247Z,34.92
2018-02-19T18:15:35.868Z,37.83
2018-02-19T18:18:03.601Z,36.53
2018-02-19T18:20:31.917Z,34.60
2018-02-19T18:23:10.141Z,32.85
2018-02-19T18:25:38.294Z,43.13
2018-02-19T18:28:05.816Z,40.55
2018-02-19T18:30:34.183Z,34.70
2018-02-19T18:33:01.805Z,39.20
2018-02-19T18:35:29.477Z,35.22
2018-02-19T18:37:56.992Z,36.38
2018-02-19T18:40:24.552Z,34.45
2018-02-19T18:42:52.108Z,37.72
2018-02-19T18:45:19.674Z,42.75
2018-02-19T18:47:47.274Z,41.83
2018-02-19T18:50:14.822Z,37.15
2018-02-19T18:52:42.440Z,34.60
2018-02-19T18:55:10.751Z,38.47
2018-02-19T18:57:38.263Z,45.38
2018-02-19T19:00:05.803Z,37.45
2018-02-19T19:02:34.424Z,39.20
2018-02-19T19:05:01.981Z,37.63
2018-02-19T19:07:41.556Z,41.83
2018-02-19T19:10:21.027Z,39.10
2018-02-19T19:12:48.554Z,41.75
2018-02-19T19:15:16.085Z,37.72
2018-02-19T19:17:44.560Z,36.60
2018-02-19T19:20:12.998Z,36.53
2018-02-19T19:22:40.575Z,39.70
2018-02-19T19:25:08.278Z,39.97
2018-02-19T19:27:35.834Z,38.42
2018-02-19T19:30:03.375Z,38.67
2018-02-19T19:32:31.760Z,38.47
2018-02-19T19:35:00.120Z,42.78
2018-02-19T19:37:27.685Z,39.15
2018-02-19T19:39:55.999Z,34.88
2018-02-19T19:42:23.564Z,34.13
2018-02-19T19:44:51.140Z,37.47
2018-02-19T19:47:18.717Z,36.75
2018-02-19T19:49:47.013Z,42.35
2018-02-19T19:52:14.535Z,37.70
2018-02-19T19:54:42.047Z,32.67
2018-02-19T19:57:10.582Z,36.60
2018-02-19T19:59:38.119Z,41.50
2018-02-19T20:02:05.774Z,41.03
2018-02-19T20:04:33.291Z,37.10
2018-02-19T20:07:00.895Z,38.92
2018-02-19T20:09:28.448Z,38.60
2018-02-19T20:11:56.152Z,39.10
2018-02-19T20:14:24.505Z,39.42
2018-02-19T20:16:52.067Z,38.03
2018-02-19T20:19:19.613Z,40.05
2018-02-19T20:21:47.201Z,38.08
2018-02-19T20:24:14.744Z,42.03
2018-02-19T20:26:42.280Z,35.95
2018-02-19T20:29:09.815Z,45.83
2018-02-19T20:31:38.099Z,42.97
2018-02-19T20:34:06.423Z,39.75
2018-02-19T20:36:33.936Z,43.25
2018-02-19T20:39:03.420Z,42.00
2018-02-19T20:41:30.962Z,43.08
2018-02-19T20:43:58.613Z,45.50
2018-02-19T20:46:26.140Z,52.88
2018-02-19T20:48:53.697Z,45.80
2018-02-19T20:51:22.561Z,42.05
2018-02-19T20:53:54.155Z,44.95
2018-02-19T20:56:22.656Z,44.08
2018-02-19T20:58:50.330Z,45.60
2018-02-19T21:01:17.882Z,44.67
2018-02-19T21:03:45.503Z,45.85
2018-02-19T21:06:13.061Z,48.55
2018-02-19T21:08:40.717Z,44.90
2018-02-19T21:11:10.098Z,44.58
2018-02-19T21:13:37.710Z,37.95
2018-02-19T21:16:05.240Z,39.45
2018-02-19T21:18:32.869Z,57.03
2018-02-19T21:21:00.525Z,43.70
2018-02-19T21:23:28.130Z,47.05
2018-02-19T21:25:55.660Z,49.78
2018-02-19T21:28:23.980Z,43.00
2018-02-19T21:30:51.554Z,48.95
2018-02-19T21:33:19.143Z,45.60
2018-02-19T21:35:48.161Z,46.85
2018-02-19T21:38:16.562Z,49.70
2018-02-19T21:40:44.096Z,48.28
2018-02-19T21:43:12.569Z,49.05
2018-02-19T21:45:40.980Z,45.17
2018-02-19T21:48:08.693Z,45.10
2018-02-19T21:50:36.215Z,50.28
2018-02-19T21:53:03.863Z,44.13
2018-02-19T21:55:31.438Z,52.70
2018-02-19T21:57:59.096Z,48.67
2018-02-19T22:00:26.604Z,43.60
2018-02-19T22:02:54.134Z,46.22
2018-02-19T22:05:21.730Z,49.38
2018-02-19T22:07:50.111Z,47.70
2018-02-19T22:10:17.604Z,48.33
2018-02-19T22:12:45.186Z,49.00
2018-02-19T22:15:12.709Z,43.28
2018-02-19T22:17:40.335Z,49.58
2018-02-19T22:20:07.867Z,43.80
2018-02-19T22:22:35.458Z,45.33
2018-02-19T22:25:03.072Z,46.33
2018-02-19T22:27:30.621Z,48.67
2018-02-19T22:29:58.193Z,49.45
2018-02-19T22:32:25.766Z,46.47
2018-02-19T22:34:53.280Z,49.35
2018-02-19T22:37:21.693Z,48.35
2018-02-19T22:39:49.207Z,46.22
2018-02-19T22:42:17.515Z,50.83
2018-02-19T22:44:45.051Z,47.17
2018-02-19T22:47:13.359Z,43.13
2018-02-19T22:49:40.884Z,47.35
2018-02-19T22:52:09.198Z,45.20
2018-02-19T22:54:36.759Z,46.35
2018-02-19T22:57:04.306Z,48.97
2018-02-19T22:59:31.848Z,50.00
2018-02-19T23:01:59.430Z,51.75
2018-02-19T23:04:26.972Z,47.13
2018-02-19T23:06:54.518Z,47.25
2018-02-19T23:09:22.823Z,49.40
2018-02-19T23:11:50.383Z,51.30
2018-02-19T23:14:17.941Z,53.35
2018-02-19T23:16:45.493Z,50.85
2018-02-19T23:19:13.025Z,45.35
2018-02-19T23:21:41.327Z,51.45
2018-02-19T23:24:08.851Z,50.47
2018-02-19T23:26:36.376Z,48.42
2018-02-19T23:29:03.920Z,44.00
2018-02-19T23:31:31.551Z,52.97
2018-02-19T23:33:59.119Z,44.25
2018-02-19T23:36:26.679Z,47.62
2018-02-19T23:38:54.242Z,47.50
2018-02-19T23:41:21.772Z,49.63
2018-02-19T23:43:49.363Z,47.92
2018-02-19T23:46:16.919Z,42.10
2018-02-19T23:48:44.510Z,43.97
2018-02-19T23:51:12.041Z,50.55
2018-02-19T23:53:39.572Z,44.45
2018-02-19T23:56:07.983Z,45.72
2018-02-19T23:58:35.533Z,42.67
